Flight Track Log - Related Links

Times and Time Zones

All times are in EDT time to prevent confusion due to time zone crossing. See the AAL963 flight status page for this flight to view local times or setup timezone preferences in your user account.

Time Position Orientation Groundspeed Altitude Reporting Facility
EDT Latitude Longitude Course Direction KTS MPH feet Rate Location/Type
Wed 09:38:41 PM 32.8540 -97.0550 192° South 191 220 1,900  Level FlightAware ADS-B
Wed 09:39:11 PM 32.8240 -97.0630 193° South 224 258 2,300 764 Climbing FlightAware ADS-B
Wed 09:39:36 PM 32.7980 -97.0700 193° South 249 287 2,600 1,418 Climbing FlightAware ADS-B
Wed 09:40:06 PM 32.7630 -97.0790 192° South 260 299 3,600 2,160 Climbing FlightAware ADS-B
Wed 09:40:26 PM 32.7400 -97.0860 194° South 256 295 4,400 2,300 Climbing FlightAware ADS-B
Wed 09:41:06 PM 32.6960 -97.0810 175° South 249 287 5,900 1,964 Climbing FlightAware ADS-B
Wed 09:41:21 PM 32.6810 -97.0730 156° South 256 295 6,200 1,714 Climbing FlightAware ADS-B
Wed 09:41:48 PM 32.6520 -97.0530 150° Southeast 263 303 7,100 2,091 Climbing FlightAware ADS-B
Wed 09:42:27 PM 32.6070 -97.0240 152° Southeast 269 310 8,500 1,970 Climbing FlightAware ADS-B
Wed 09:42:55 PM 32.5760 -97.0030 150° Southeast 277 319 9,300 1,731 Climbing FlightAware ADS-B
Wed 09:43:19 PM 32.5490 -96.9860 152° Southeast 286 329 10,000 1,457 Climbing FlightAware ADS-B
Wed 09:44:05 PM 32.4930 -96.9490 151° Southeast 312 359 11,000 1,326 Climbing FlightAware ADS-B
Wed 09:44:45 PM 32.4380 -96.9270 161° South 334 384 11,900 1,229 Climbing FlightAware ADS-B
Wed 09:45:28 PM 32.3670 -96.9080 167° South 363 418 12,700 1,373 Climbing FlightAware ADS-B
Wed 09:46:08 PM 32.3010 -96.8900 167° South 373 429 13,800 1,624 Climbing FlightAware ADS-B
Wed 09:46:53 PM 32.2250 -96.8690 167° South 383 441 15,000 1,714 Climbing FlightAware ADS-B
Wed 09:47:32 PM 32.1555 -96.8505 167° South 390 449 16,200 1,690 Climbing FlightAware ADS-B
Wed 09:48:04 PM 32.0993 -96.8351 167° South 396 456 17,000 1,462 Climbing FlightAware ADS-B
Wed 09:48:50 PM 32.0157 -96.8119 167° South 407 468 18,100 1,517 Climbing FlightAware ADS-B
Wed 09:49:31 PM 31.9400 -96.7900 166° South 413 475 19,200 1,417 Climbing FlightAware ADS-B
Wed 09:50:02 PM 31.8817 -96.7740 167° South 413 475 19,800 1,238 Climbing FlightAware ADS-B
Wed 09:50:34 PM 31.8197 -96.7570 167° South 428 493 20,500 1,391 Climbing FlightAware ADS-B
Wed 09:51:11 PM 31.7482 -96.7378 167° South 435 501 21,400 1,412 Climbing FlightAware ADS-B
Wed 09:51:42 PM 31.6868 -96.7213 167° South 439 505 22,100 1,279 Climbing FlightAware ADS-B
Wed 09:52:12 PM 31.6257 -96.7049 167° South 445 512 22,700 1,091 Climbing FlightAware ADS-B
Wed 09:52:48 PM 31.5531 -96.6856 167° South 451 519 23,300 1,102 Climbing FlightAware ADS-B
Wed 09:53:50 PM 31.4250 -96.6512 167° South 463 533 24,500 1,109 Climbing FlightAware ADS-B
Wed 09:54:20 PM 31.3608 -96.6339 167° South 467 537 25,000 1,065 Climbing FlightAware ADS-B
Wed 09:54:52 PM 31.2945 -96.6161 167° South 472 543 25,600 1,000 Climbing FlightAware ADS-B
Wed 09:55:08 PM 31.2589 -96.6064 167° South 475 547 25,800 720 Climbing FlightAware ADS-B
Wed 09:55:17 PM 31.2404 -96.5993 162° South 474 545 25,900 706 Climbing FlightAware ADS-B
Wed 09:55:25 PM 31.2248 -96.5913 156° South 474 545 26,000 706 Climbing FlightAware ADS-B
Wed 09:55:34 PM 31.2075 -96.5797 150° Southeast 474 545 26,100 750 Climbing FlightAware ADS-B
Wed 09:55:41 PM 31.1957 -96.5699 145° Southeast 474 545 26,200 923 Climbing FlightAware ADS-B
Wed 09:56:00 PM 31.1655 -96.5357 136° Southeast 472 543 26,500 960 Climbing FlightAware ADS-B
Wed 09:56:06 PM 31.1580 -96.5242 127° Southeast 472 543 26,600 1,000 Climbing FlightAware ADS-B
Wed 09:56:36 PM 31.1212 -96.4608 124° Southeast 474 545 27,100 913 Climbing FlightAware ADS-B
Wed 09:57:38 PM 31.0447 -96.3266 124° Southeast 482 555 28,000 848 Climbing FlightAware ADS-B
Wed 09:58:08 PM 31.0071 -96.2612 124° Southeast 485 558 28,400 689 Climbing FlightAware ADS-B
Wed 09:58:39 PM 30.9692 -96.1956 124° Southeast 490 564 28,700 725 Climbing FlightAware ADS-B
Wed 09:59:39 PM 30.8924 -96.0633 124° Southeast 494 568 29,500 744 Climbing FlightAware ADS-B
Wed 10:00:40 PM 30.8133 -95.9275 124° Southeast 503 579 30,200 725 Climbing FlightAware ADS-B
Wed 10:01:10 PM 30.7738 -95.8597 124° Southeast 506 582 30,600 787 Climbing FlightAware ADS-B
Wed 10:01:41 PM 30.7338 -95.7913 124° Southeast 507 583 31,000 836 Climbing FlightAware ADS-B
Wed 10:03:12 PM 30.6145 -95.5875 124° Southeast 505 581 32,300 843 Climbing FlightAware ADS-B
Wed 10:03:42 PM 30.5741 -95.5189 124° Southeast 504 580 32,700 344 Climbing FlightAware ADS-B
Wed 10:05:14 PM 30.4535 -95.3142 124° Southeast 503 579 33,000 146 Climbing FlightAware ADS-B
Wed 10:05:45 PM 30.4133 -95.2463 124° Southeast 501 577 33,000  Level FlightAware ADS-B
Wed 10:06:48 PM 30.3304 -95.1067 125° Southeast 502 578 33,000  Level FlightAware ADS-B
Wed 10:07:18 PM 30.2908 -95.0401 125° Southeast 503 579 33,000  Level FlightAware ADS-B
Wed 10:07:49 PM 30.2505 -94.9724 125° Southeast 505 581 33,000  Level FlightAware ADS-B
Wed 10:09:19 PM 30.1304 -94.7714 125° Southeast 508 585 33,000  Level FlightAware ADS-B
Wed 10:11:16 PM 29.9726 -94.5120 130° Southeast 510 587 33,000  Level FlightAware ADS-B
Wed 10:11:46 PM 29.9177 -94.4587 140° Southeast 513 590 33,000  Level FlightAware ADS-B
Wed 10:12:16 PM 29.8621 -94.4080 142° Southeast 513 590 33,000  Level FlightAware ADS-B
Wed 10:12:47 PM 29.8068 -94.3552 140° Southeast 512 589 33,000  Level FlightAware ADS-B
Wed 10:13:47 PM 29.6989 -94.2476 139° Southeast 512 589 33,000  Level FlightAware ADS-B
Wed 10:14:18 PM 29.6442 -94.1923 139° Southeast 511 588 33,000  Level FlightAware ADS-B
Wed 10:15:20 PM 29.5330 -94.0835 141° Southeast 513 590 33,000  Level FlightAware ADS-B
Wed 10:15:54 PM 29.4697 -94.0252 141° Southeast 514 592 33,000  Level FlightAware ADS-B
Wed 10:16:24 PM 29.4138 -93.9736 141° Southeast 514 592 33,000  Level FlightAware ADS-B
Wed 10:16:55 PM 29.3573 -93.9211 141° Southeast 515 593 33,000  Level FlightAware ADS-B
Wed 10:17:26 PM 29.2981 -93.8661 141° Southeast 515 593 33,000  Level FlightAware ADS-B
Wed 10:17:57 PM 29.2421 -93.8140 141° Southeast 516 594 33,000  Level FlightAware ADS-B
Wed 10:18:27 PM 29.1861 -93.7621 141° Southeast 516 594 33,000  Level FlightAware ADS-B
Wed 10:18:58 PM 29.1287 -93.7090 141° Southeast 517 595 33,000  Level FlightAware ADS-B
Wed 10:19:28 PM 29.0722 -93.6567 141° Southeast 518 596 33,000  Level FlightAware ADS-B
Wed 10:19:58 PM 29.0161 -93.6050 141° Southeast 518 596 33,000  Level FlightAware ADS-B
Wed 10:20:48 PM 28.9394 -93.5369 141° Southeast 516 594 33,000  Level Houston Center
Wed 10:21:49 PM 28.8267 -93.4294 140° Southeast 524 603 33,000  Level Houston Center
Wed 10:22:50 PM 28.7156 -93.3272 141° Southeast 517 595 33,000 -49 Level Houston Center
Wed 10:23:51 PM 28.6036 -93.2258 141° Southeast 516 594 32,900  Descending Houston Center
Wed 10:24:52 PM 28.4928 -93.1253 141° Southeast 513 590 33,000 49 Climbing Houston Center
Wed 10:25:53 PM 28.3800 -93.0253 142° Southeast 515 593 33,000 -49 Level Houston Center
Wed 10:26:55 PM 28.2456 -92.9006 141° Southeast 519 597 32,900 -49 Descending Houston Center
Wed 10:27:56 PM 28.1336 -92.7989 141° Southeast 517 595 32,900 49 Level Houston Center
Wed 10:28:57 PM 28.0203 -92.6986 142° Southeast 517 595 33,000  Climbing Houston Center
Wed 10:29:58 PM 27.9061 -92.5969 142° Southeast 521 600 32,900  Descending Houston Center
Wed 10:30:59 PM 27.7931 -92.4942 141° Southeast 521 600 33,000 49 Climbing Houston Center
Wed 10:32:00 PM 27.6778 -92.3947 143° Southeast 522 601 33,000  Level Houston Center
Wed 10:33:01 PM 27.5639 -92.2939 142° Southeast 520 598 33,000 -49 Level Houston Center
Wed 10:34:02 PM 27.4500 -92.1925 142° Southeast 521 600 32,900  Descending Houston Center
Wed 10:35:03 PM 27.3361 -92.0922 142° Southeast 520 598 33,000  Climbing Houston Center
Wed 10:36:05 PM 27.2219 -91.9908 142° Southeast 523 602 32,900 -49 Descending Houston Center
Wed 10:37:06 PM 27.0811 -91.8733 143° Southeast 524 603 32,900  Level Houston Center
Wed 10:38:07 PM 26.9617 -91.7778 145° Southeast 526 605 32,900 49 Level Houston Center
Wed 10:39:08 PM 26.8469 -91.6864 145° Southeast 528 608 33,000  Climbing Houston Center
Wed 10:40:09 PM 26.7278 -91.5906 144° Southeast 527 606 32,900 76 Descending Houston Center
Wed 10:42:00 PM 26.5249 -91.4253 144° Southeast  Level FlightAware Approximate
Wed 10:49:00 PM 25.7507 -90.8130 145° Southeast  Level FlightAware Approximate
Wed 10:50:00 PM 25.6397 -90.7265 145° Southeast  Level FlightAware Approximate
Wed 10:51:00 PM 25.5287 -90.6402 145° Southeast  Level FlightAware Approximate
Wed 10:52:00 PM 25.4175 -90.5540 145° Southeast  Level FlightAware Approximate
Wed 10:53:00 PM 25.3064 -90.4680 145° Southeast  Level FlightAware Approximate
Wed 10:54:00 PM 25.1943 -90.3816 145° Southeast  Level FlightAware Approximate
Wed 10:55:00 PM 25.0823 -90.2953 145° Southeast  Level FlightAware Approximate
Wed 10:56:00 PM 24.9701 -90.2091 145° Southeast  Level FlightAware Approximate
Wed 10:57:00 PM 24.8579 -90.1231 145° Southeast  Level FlightAware Approximate
Wed 10:58:00 PM 24.7457 -90.0373 145° Southeast  Level FlightAware Approximate
Wed 10:59:00 PM 24.6334 -89.9516 145° Southeast  Level FlightAware Approximate
Wed 11:00:00 PM 24.5211 -89.8660 145° Southeast  Level FlightAware Approximate
Wed 11:01:00 PM 24.4098 -89.7794 146° Southeast  Level FlightAware Approximate
Wed 11:02:00 PM 24.2961 -89.6962 146° Southeast  Level FlightAware Approximate
Wed 11:03:00 PM 24.1824 -89.6131 146° Southeast  Level FlightAware Approximate
Wed 11:04:00 PM 24.0686 -89.5302 146° Southeast  Level FlightAware Approximate
Wed 11:05:00 PM 23.9561 -89.4453 145° Southeast  Level FlightAware Approximate
Wed 11:05:22 PM 23.7630 -89.2960 145° Southeast 500 575 35,000  Level FlightAware ADS-B
Wed 11:06:03 PM 23.6940 -89.2430 145° Southeast 500 575 35,000  Level FlightAware ADS-B
Wed 11:06:39 PM 23.6360 -89.1990 145° Southeast 500 575 35,000  Level FlightAware ADS-B
Wed 11:07:43 PM 23.5050 -89.1020 146° Southeast 499 574 35,000  Level FlightAware ADS-B
Wed 11:08:27 PM 23.4090 -89.0300 145° Southeast 499 574 35,000  Level FlightAware ADS-B
Wed 11:09:00 PM 23.3550 -88.9890 145° Southeast 499 574 35,000  Level FlightAware ADS-B
Wed 11:09:48 PM 23.2670 -88.9240 146° Southeast 496 571 35,000  Level FlightAware ADS-B
Wed 11:10:39 PM 23.1620 -88.8460 146° Southeast 494 568 35,000  Level FlightAware ADS-B
Wed 11:11:55 PM 23.0470 -88.7600 145° Southeast 492 566 35,000  Level FlightAware ADS-B
Wed 11:12:37 PM 22.9370 -88.6790 146° Southeast 492 566 35,000  Level FlightAware ADS-B
Wed 11:13:15 PM 22.8680 -88.6280 146° Southeast 492 566 35,000  Level FlightAware ADS-B
Wed 11:14:03 PM 22.7750 -88.5600 146° Southeast 492 566 35,000  Level FlightAware ADS-B
Wed 11:14:44 PM 22.6990 -88.5040 146° Southeast 491 565 35,000  Level FlightAware ADS-B
Wed 11:15:23 PM 22.6240 -88.4480 145° Southeast 492 566 35,000  Level FlightAware ADS-B
Wed 11:16:05 PM 22.5500 -88.3810 140° Southeast 494 568 35,000  Level FlightAware ADS-B
Wed 11:16:56 PM 22.4820 -88.3120 137° Southeast 494 568 35,000  Level FlightAware ADS-B
Wed 11:17:41 PM 22.4230 -88.2510 136° Southeast 493 567 35,000  Level FlightAware ADS-B
Wed 11:18:37 PM 22.3160 -88.1420 137° Southeast 490 564 35,000  Level FlightAware ADS-B
Wed 11:19:25 PM 22.2300 -88.0550 137° Southeast 489 563 35,000  Level FlightAware ADS-B
Wed 11:20:35 PM 22.1190 -87.9430 137° Southeast 487 560 35,000  Level FlightAware ADS-B
Wed 11:21:24 PM 22.0380 -87.8620 137° Southeast 487 560 35,000  Level FlightAware ADS-B
Wed 11:22:01 PM 21.9790 -87.8030 137° Southeast 488 562 35,000  Level FlightAware ADS-B
Wed 11:22:42 PM 21.9100 -87.7340 137° Southeast 487 560 35,000  Level FlightAware ADS-B
Wed 11:23:26 PM 21.8370 -87.6600 137° Southeast 486 559 35,000  Level FlightAware ADS-B
Wed 11:24:03 PM 21.7760 -87.6000 138° Southeast 486 559 35,000  Level FlightAware ADS-B
Wed 11:24:52 PM 21.6940 -87.5190 137° Southeast 485 558 35,000  Level FlightAware ADS-B
Wed 11:25:24 PM 21.6420 -87.4660 137° Southeast 485 558 35,000  Level FlightAware ADS-B
Wed 11:26:05 PM 21.5730 -87.3990 138° Southeast 484 557 35,000  Level FlightAware ADS-B
Wed 11:26:50 PM 21.5000 -87.3260 137° Southeast 483 556 35,000  Level FlightAware ADS-B
Wed 11:27:31 PM 21.4310 -87.2580 137° Southeast 483 556 35,000  Level FlightAware ADS-B
Wed 11:28:27 PM 21.3400 -87.1680 137° Southeast 483 556 35,000  Level FlightAware ADS-B
Wed 11:29:07 PM 21.2740 -87.1030 137° Southeast 484 557 35,000  Level FlightAware ADS-B
Wed 11:29:51 PM 21.2040 -87.0340 137° Southeast 484 557 35,000  Level FlightAware ADS-B
Wed 11:30:34 PM 21.1220 -86.9540 138° Southeast 483 556 35,000  Level FlightAware ADS-B
Wed 11:31:16 PM 21.0640 -86.8970 137° Southeast 482 555 35,000  Level FlightAware ADS-B
Wed 11:31:58 PM 20.9890 -86.8240 138° Southeast 482 555 35,000  Level FlightAware ADS-B
Wed 11:32:41 PM 20.9060 -86.7430 138° Southeast 484 557 35,000  Level FlightAware ADS-B
Wed 11:33:22 PM 20.8400 -86.6790 138° Southeast 482 555 35,000  Level FlightAware ADS-B
Wed 11:34:07 PM 20.7650 -86.6060 138° Southeast 482 555 35,000  Level FlightAware ADS-B
Wed 11:34:47 PM 20.6990 -86.5420 138° Southeast 482 555 35,000  Level FlightAware ADS-B
Wed 11:35:31 PM 20.6270 -86.4720 138° Southeast 482 555 35,000  Level FlightAware ADS-B
Wed 11:36:11 PM 20.5610 -86.4090 138° Southeast 482 555 35,000  Level FlightAware ADS-B
Wed 11:37:24 PM 20.4490 -86.2990 137° Southeast 481 554 35,000  Level FlightAware ADS-B
Wed 11:37:59 PM 20.3820 -86.2370 139° Southeast 482 555 35,000  Level FlightAware ADS-B
Wed 11:38:48 PM 20.3140 -86.1690 137° Southeast 482 555 35,000  Level FlightAware ADS-B
Wed 11:39:24 PM 20.2640 -86.1200 137° Southeast 482 555 35,000  Level FlightAware ADS-B
Wed 11:40:07 PM 20.1670 -86.0300 139° Southeast 483 556 35,000  Level FlightAware ADS-B
Wed 11:40:51 PM 20.0940 -85.9600 138° Southeast 483 556 35,000  Level FlightAware ADS-B
Wed 11:41:31 PM 20.0270 -85.8960 138° Southeast 483 556 35,000  Level FlightAware ADS-B
Wed 11:42:15 PM 19.9540 -85.8270 138° Southeast 483 556 35,000  Level FlightAware ADS-B
Wed 11:42:57 PM 19.8840 -85.7610 138° Southeast 483 556 35,000  Level FlightAware ADS-B
Wed 11:43:39 PM 19.8130 -85.6950 139° Southeast 483 556 35,000  Level FlightAware ADS-B
Wed 11:44:17 PM 19.7500 -85.6350 138° Southeast 484 557 35,000  Level FlightAware ADS-B
Wed 11:44:51 PM 19.6920 -85.5810 139° Southeast 485 558 35,000  Level FlightAware ADS-B
Wed 11:45:30 PM 19.6370 -85.5280 138° Southeast 485 558 35,000  Level FlightAware ADS-B
Wed 11:46:18 PM 19.5690 -85.4630 138° Southeast 485 558 35,000  Level FlightAware ADS-B
Wed 11:46:55 PM 19.4830 -85.3840 139° Southeast 490 564 35,000  Level FlightAware ADS-B
Wed 11:47:36 PM 19.4140 -85.3200 139° Southeast 491 565 35,000  Level FlightAware ADS-B
Wed 11:48:16 PM 19.3440 -85.2550 139° Southeast 492 566 35,000  Level FlightAware ADS-B
Wed 11:48:58 PM 19.2830 -85.1970 138° Southeast 492 566 35,000  Level FlightAware ADS-B
Wed 11:49:59 PM 19.1950 -85.1130 138° Southeast 492 566 35,000  Level FlightAware ADS-B
Wed 11:50:35 PM 19.1430 -85.0640 138° Southeast 492 566 35,000  Level FlightAware ADS-B
Wed 11:51:23 PM 19.0740 -84.9980 138° Southeast 492 566 35,000  Level FlightAware ADS-B
Wed 11:52:11 PM 19.0050 -84.9320 138° Southeast 492 566 35,000  Level FlightAware ADS-B
Wed 11:52:47 PM 18.9540 -84.8830 138° Southeast 492 566 35,000  Level FlightAware ADS-B
Wed 11:53:23 PM 18.9020 -84.8340 138° Southeast 492 566 35,000  Level FlightAware ADS-B
Wed 11:54:12 PM 18.8310 -84.7670 138° Southeast 492 566 35,000  Level FlightAware ADS-B
Wed 11:54:48 PM 18.7800 -84.7170 137° Southeast 492 566 35,000  Level FlightAware ADS-B
Wed 11:55:26 PM 18.7250 -84.6660 139° Southeast 492 566 35,000  Level FlightAware ADS-B
Wed 11:56:14 PM 18.6560 -84.6000 138° Southeast 492 566 35,000  Level FlightAware ADS-B
Wed 11:56:51 PM 18.6030 -84.5490 138° Southeast 492 566 35,000  Level FlightAware ADS-B
Wed 11:57:39 PM 18.5340 -84.4840 138° Southeast 492 566 35,000  Level FlightAware ADS-B
Wed 11:58:16 PM 18.4810 -84.4330 138° Southeast 492 566 35,000 -26 Level FlightAware ADS-B
Thu 12:00:00 AM 18.2686 -84.3115 139° Southeast  Level FlightAware Approximate
Thu 12:01:00 AM 18.1647 -84.2181 139° Southeast  Level FlightAware Approximate
Thu 12:02:00 AM 18.0609 -84.1247 139° Southeast  Level FlightAware Approximate
Thu 12:03:00 AM 17.9569 -84.0314 140° Southeast  Level FlightAware Approximate
Thu 12:04:00 AM 17.8530 -83.9382 140° Southeast  Level FlightAware Approximate
Thu 12:05:00 AM 17.7490 -83.8452 140° Southeast  Level FlightAware Approximate
Thu 12:06:00 AM 17.6449 -83.7523 140° Southeast  Level FlightAware Approximate
Thu 12:07:00 AM 17.5408 -83.6594 140° Southeast  Level FlightAware Approximate
Thu 12:08:00 AM 17.4367 -83.5667 140° Southeast  Level FlightAware Approximate
Thu 12:09:00 AM 17.3325 -83.4741 140° Southeast  Level FlightAware Approximate
Thu 12:10:00 AM 17.2282 -83.3815 140° Southeast  Level FlightAware Approximate
Thu 12:11:00 AM 17.1240 -83.2891 140° Southeast  Level FlightAware Approximate
Thu 12:12:00 AM 17.0197 -83.1968 140° Southeast  Level FlightAware Approximate
Thu 12:13:00 AM 16.9153 -83.1046 140° Southeast  Level FlightAware Approximate
Thu 12:14:00 AM 16.8109 -83.0125 140° Southeast  Level FlightAware Approximate
Thu 12:15:00 AM 16.7065 -82.9205 140° Southeast  Level FlightAware Approximate
Thu 12:16:00 AM 16.6020 -82.8286 140° Southeast  Level FlightAware Approximate
Thu 12:17:00 AM 16.4975 -82.7367 140° Southeast  Level FlightAware Approximate
Thu 12:18:00 AM 16.3929 -82.6450 140° Southeast  Level FlightAware Approximate
Thu 12:19:00 AM 16.2883 -82.5534 140° Southeast  Level FlightAware Approximate
Thu 12:20:00 AM 16.1837 -82.4619 140° Southeast  Level FlightAware Approximate
Thu 12:21:00 AM 16.0790 -82.3705 140° Southeast  Level FlightAware Approximate
Thu 12:22:00 AM 15.9743 -82.2792 140° Southeast  Level FlightAware Approximate
Thu 12:23:00 AM 15.8695 -82.1880 140° Southeast  Level FlightAware Approximate
Thu 12:24:00 AM 15.7649 -82.0967 140° Southeast  Level FlightAware Approximate
Thu 12:25:00 AM 15.6602 -82.0055 140° Southeast  Level FlightAware Approximate
Thu 12:26:00 AM 15.5555 -81.9144 140° Southeast  Level FlightAware Approximate
Thu 12:27:00 AM 15.4507 -81.8234 140° Southeast  Level FlightAware Approximate
Thu 12:28:00 AM 15.3459 -81.7325 140° Southeast  Level FlightAware Approximate
Thu 12:29:00 AM 15.2410 -81.6416 140° Southeast  Level FlightAware Approximate
Thu 12:30:00 AM 15.1361 -81.5509 140° Southeast  Level FlightAware Approximate
Thu 12:31:00 AM 15.0312 -81.4603 140° Southeast  Level FlightAware Approximate
Thu 12:32:00 AM 14.9263 -81.3696 140° Southeast  Level FlightAware Approximate
Thu 12:33:00 AM 14.8222 -81.2797 140° Southeast  Level FlightAware Approximate
Thu 12:34:00 AM 14.7180 -81.1899 140° Southeast  Level FlightAware Approximate
Thu 12:35:00 AM 14.6140 -81.1003 140° Southeast  Level FlightAware Approximate
Thu 12:36:00 AM 14.5099 -81.0108 140° Southeast  Level FlightAware Approximate
Thu 12:37:00 AM 14.4058 -80.9214 140° Southeast  Level FlightAware Approximate
Thu 12:38:00 AM 14.3017 -80.8321 140° Southeast  Level FlightAware Approximate
Thu 12:39:00 AM 14.1975 -80.7428 140° Southeast  Level FlightAware Approximate
Thu 12:40:00 AM 14.0933 -80.6536 140° Southeast  Level FlightAware Approximate
Thu 12:41:00 AM 13.9891 -80.5646 140° Southeast  Level FlightAware Approximate
Thu 12:42:00 AM 13.8849 -80.4756 140° Southeast  Level FlightAware Approximate
Thu 12:43:00 AM 13.7806 -80.3867 140° Southeast  Level FlightAware Approximate
Thu 12:44:00 AM 13.6763 -80.2978 140° Southeast  Level FlightAware Approximate
Thu 12:45:00 AM 13.5719 -80.2091 140° Southeast  Level FlightAware Approximate
Thu 12:46:00 AM 13.4675 -80.1204 140° Southeast  Level FlightAware Approximate
Thu 12:47:00 AM 13.3631 -80.0318 140° Southeast  Level FlightAware Approximate
Thu 12:48:00 AM 13.2587 -79.9432 140° Southeast  Level FlightAware Approximate
Thu 12:49:00 AM 13.1542 -79.8548 140° Southeast  Level FlightAware Approximate
Thu 12:50:00 AM 13.0497 -79.7664 141° Southeast  Level FlightAware Approximate
Thu 12:51:00 AM 12.9451 -79.6781 141° Southeast  Level FlightAware Approximate
Thu 12:52:00 AM 12.8406 -79.5898 141° Southeast  Level FlightAware Approximate
Thu 12:53:00 AM 12.7360 -79.5017 141° Southeast  Level FlightAware Approximate
Thu 12:54:00 AM 12.6314 -79.4136 141° Southeast  Level FlightAware Approximate
Thu 12:55:00 AM 12.5267 -79.3256 141° Southeast  Level FlightAware Approximate
Thu 12:56:00 AM 12.4220 -79.2376 141° Southeast  Level FlightAware Approximate
Thu 12:57:00 AM 12.3173 -79.1498 141° Southeast  Level FlightAware Approximate
Thu 12:58:00 AM 12.2126 -79.0620 141° Southeast  Level FlightAware Approximate
Thu 12:59:00 AM 12.1078 -78.9742 141° Southeast  Level FlightAware Approximate
Thu 01:00:00 AM 12.0030 -78.8866 141° Southeast  Level FlightAware Approximate
Thu 01:01:00 AM 11.8982 -78.7990 141° Southeast  Level FlightAware Approximate
Thu 01:02:00 AM 11.7934 -78.7114 141° Southeast  Level FlightAware Approximate
Thu 01:03:00 AM 11.6885 -78.6240 141° Southeast  Level FlightAware Approximate
Thu 01:04:00 AM 11.5836 -78.5366 141° Southeast  Level FlightAware Approximate
Thu 01:05:00 AM 11.4787 -78.4493 141° Southeast  Level FlightAware Approximate
Thu 01:06:00 AM 11.3737 -78.3620 141° Southeast  Level FlightAware Approximate
Thu 01:07:00 AM 11.2687 -78.2748 141° Southeast  Level FlightAware Approximate
Thu 01:08:00 AM 11.1637 -78.1877 141° Southeast  Level FlightAware Approximate
Thu 01:09:00 AM 11.0587 -78.1006 141° Southeast  Level FlightAware Approximate
Thu 01:10:00 AM 10.9535 -78.0134 141° Southeast  Level FlightAware Approximate
Thu 01:11:00 AM 10.8482 -77.9263 141° Southeast  Level FlightAware Approximate
Thu 01:12:00 AM 10.7429 -77.8393 141° Southeast  Level FlightAware Approximate
Thu 01:13:00 AM 10.6376 -77.7523 141° Southeast  Level FlightAware Approximate
Thu 01:14:00 AM 10.5322 -77.6654 141° Southeast  Level FlightAware Approximate
Thu 01:15:00 AM 10.4269 -77.5785 141° Southeast  Level FlightAware Approximate
Thu 01:15:30 AM 10.3020 -76.8050 141° Southeast 505 581 33,000  Level FlightAware ADS-B
Thu 01:16:00 AM 10.3215 -77.4917 141° Southeast  Level FlightAware Approximate
Thu 01:16:25 AM 10.2100 -76.7190 137° Southeast 503 579 33,000  Level FlightAware ADS-B
Thu 01:17:20 AM 10.1200 -76.6360 138° Southeast 502 578 33,000  Level FlightAware ADS-B
Thu 01:18:05 AM 10.0400 -76.5620 138° Southeast 502 578 33,000  Level FlightAware ADS-B
Thu 01:18:55 AM 9.9500 -76.4790 138° Southeast 501 577 33,000  Level FlightAware ADS-B
Thu 01:19:35 AM 9.8810 -76.4150 138° Southeast 501 577 33,000  Level FlightAware ADS-B
Thu 01:20:25 AM 9.7970 -76.3380 138° Southeast 500 575 33,000  Level FlightAware ADS-B
Thu 01:21:05 AM 9.7290 -76.2740 137° Southeast 500 575 33,000  Level FlightAware ADS-B
Thu 01:21:40 AM 9.6670 -76.2170 138° Southeast 498 573 33,000  Level FlightAware ADS-B
Thu 01:22:25 AM 9.5920 -76.1480 138° Southeast 497 572 33,000  Level FlightAware ADS-B
Thu 01:23:05 AM 9.5250 -76.0860 138° Southeast 498 573 33,000  Level FlightAware ADS-B
Thu 01:23:40 AM 9.4620 -76.0280 138° Southeast 497 572 33,000  Level FlightAware ADS-B
Thu 01:24:20 AM 9.3990 -75.9700 138° Southeast 498 573 33,000  Level FlightAware ADS-B
Thu 01:25:05 AM 9.3230 -75.9000 138° Southeast 497 572 33,000  Level FlightAware ADS-B
Thu 01:25:40 AM 9.2620 -75.8430 137° Southeast 498 573 33,000  Level FlightAware ADS-B
Thu 01:26:44 AM 9.1630 -75.7530 138° Southeast 498 573 33,000  Level FlightAware ADS-B
Thu 01:27:20 AM 9.0910 -75.6870 138° Southeast 499 574 33,000  Level FlightAware ADS-B
Thu 01:28:00 AM 9.0260 -75.6270 138° Southeast 499 574 33,000  Level FlightAware ADS-B
Thu 01:28:40 AM 8.9540 -75.5600 137° Southeast 498 573 33,000  Level FlightAware ADS-B
Thu 01:29:36 AM 8.8670 -75.4820 138° Southeast 498 573 33,000  Level FlightAware ADS-B
Thu 01:30:15 AM 8.7910 -75.4110 137° Southeast 498 573 33,000  Level FlightAware ADS-B
Thu 01:30:50 AM 8.7330 -75.3580 138° Southeast 498 573 33,000  Level FlightAware ADS-B
Thu 01:31:35 AM 8.6520 -75.2840 138° Southeast 500 575 33,000  Level FlightAware ADS-B
Thu 01:32:15 AM 8.5850 -75.2230 138° Southeast 500 575 33,000  Level FlightAware ADS-B
Thu 01:33:00 AM 8.5050 -75.1490 138° Southeast 501 577 33,000  Level FlightAware ADS-B
Thu 01:33:35 AM 8.4460 -75.0950 138° Southeast 501 577 33,000  Level FlightAware ADS-B
Thu 01:34:25 AM 8.3620 -75.0190 138° Southeast 500 575 33,000  Level FlightAware ADS-B
Thu 01:35:05 AM 8.2910 -74.9530 137° Southeast 499 574 33,000  Level FlightAware ADS-B
Thu 01:35:40 AM 8.2370 -74.9040 138° Southeast 497 572 33,000  Level FlightAware ADS-B
Thu 01:36:20 AM 8.1650 -74.8380 138° Southeast 500 575 33,000 353 Level FlightAware ADS-B
Thu 01:37:05 AM 8.0920 -74.7720 138° Southeast 502 578 33,500 1,050 Climbing FlightAware ADS-B
Thu 01:37:40 AM 8.0270 -74.7120 138° Southeast 496 571 34,400 1,200 Climbing FlightAware ADS-B
Thu 01:38:20 AM 7.9590 -74.6500 138° Southeast 493 567 35,000 424 Climbing FlightAware ADS-B
Thu 01:39:05 AM 7.8820 -74.5800 138° Southeast 495 570 35,000  Level FlightAware ADS-B
Thu 01:39:40 AM 7.8200 -74.5240 138° Southeast 494 568 35,000  Level FlightAware ADS-B
Thu 01:40:20 AM 7.7530 -74.4630 138° Southeast 493 567 35,000  Level FlightAware ADS-B
Thu 01:41:05 AM 7.6770 -74.3940 138° Southeast 491 565 35,000  Level FlightAware ADS-B
Thu 01:41:35 AM 7.6260 -74.3470 138° Southeast 491 565 35,000  Level FlightAware ADS-B
Thu 01:42:20 AM 7.5520 -74.2810 139° Southeast 490 564 35,000  Level FlightAware ADS-B
Thu 01:43:00 AM 7.4840 -74.2190 138° Southeast 490 564 35,000  Level FlightAware ADS-B
Thu 01:43:45 AM 7.4070 -74.1480 138° Southeast 491 565 35,000  Level FlightAware ADS-B
Thu 01:44:25 AM 7.3430 -74.0900 138° Southeast 493 567 35,000  Level FlightAware ADS-B
Thu 01:45:10 AM 7.2650 -74.0200 138° Southeast 494 568 35,000  Level FlightAware ADS-B
Thu 01:45:50 AM 7.2070 -73.9670 138° Southeast 494 568 35,000  Level FlightAware ADS-B
Thu 01:46:25 AM 7.1360 -73.9030 138° Southeast 35,000  Level FlightAware ADS-B
Thu 01:47:02 AM 7.0850 -73.8570 138° Southeast 491 565 35,000  Level FlightAware ADS-B
Thu 01:47:50 AM 6.9850 -73.7820 143° Southeast 494 568 35,000  Level FlightAware ADS-B
Thu 01:48:30 AM 6.9030 -73.7370 151° Southeast 494 568 35,000  Level FlightAware ADS-B
Thu 01:49:13 AM 6.8170 -73.6910 152° Southeast 494 568 35,000  Level FlightAware ADS-B
Thu 01:49:57 AM 6.7290 -73.6430 152° Southeast 495 570 35,000  Level FlightAware ADS-B
Thu 01:50:37 AM 6.6460 -73.5980 152° Southeast 496 571 35,000  Level FlightAware ADS-B
Thu 01:51:15 AM 6.5700 -73.5570 152° Southeast 497 572 35,000  Level FlightAware ADS-B
Thu 01:51:58 AM 6.4840 -73.5110 152° Southeast 498 573 35,000  Level FlightAware ADS-B
Thu 01:52:37 AM 6.4030 -73.4670 152° Southeast 499 574 35,000  Level FlightAware ADS-B
Thu 01:53:17 AM 6.3200 -73.4220 152° Southeast 497 572 35,000  Level FlightAware ADS-B
Thu 01:53:53 AM 6.2500 -73.3850 152° Southeast 474 545 35,000  Level FlightAware ADS-B
Thu 01:54:39 AM 6.1580 -73.3350 152° Southeast 489 563 35,000  Level FlightAware ADS-B
Thu 01:55:56 AM 6.0240 -73.2610 151° Southeast 494 568 35,000  Level FlightAware ADS-B
Thu 01:56:32 AM 5.9630 -73.2270 151° Southeast 494 568 35,000  Level FlightAware ADS-B
Thu 01:57:33 AM 5.8590 -73.1690 151° Southeast 494 568 35,000  Level FlightAware ADS-B
Thu 01:58:09 AM 5.7980 -73.1350 151° Southeast 494 568 35,000  Level FlightAware ADS-B
Thu 01:58:55 AM 5.6390 -73.0550 153° Southeast 496 571 35,000  Level FlightAware ADS-B
Thu 01:59:39 AM 5.5490 -73.0070 152° Southeast 496 571 35,000  Level FlightAware ADS-B
Thu 02:01:08 AM 5.3900 -72.9190 151° Southeast 495 570 35,000  Level FlightAware ADS-B
Thu 02:02:05 AM 5.2540 -72.8480 153° Southeast 495 570 35,000  Level FlightAware ADS-B
Thu 02:02:38 AM 5.1910 -72.8140 152° Southeast 496 571 35,000  Level FlightAware ADS-B
Thu 02:03:23 AM 5.0970 -72.7630 152° Southeast 495 570 35,000  Level FlightAware ADS-B
Thu 02:04:01 AM 5.0320 -72.7270 151° Southeast 495 570 35,000  Level FlightAware ADS-B
Thu 02:04:50 AM 4.9490 -72.6810 151° Southeast 495 570 35,000  Level FlightAware ADS-B
Thu 02:05:26 AM 4.8870 -72.6470 151° Southeast 495 570 35,000  Level FlightAware ADS-B
Thu 02:06:14 AM 4.8060 -72.6010 150° Southeast 495 570 35,000  Level FlightAware ADS-B
Thu 02:06:51 AM 4.7430 -72.5660 151° Southeast 495 570 35,000  Level FlightAware ADS-B
Thu 02:07:27 AM 4.6810 -72.5320 151° Southeast 495 570 35,000  Level FlightAware ADS-B
Thu 02:08:03 AM 4.6200 -72.4980 151° Southeast 495 570 35,000  Level FlightAware ADS-B
Thu 02:08:51 AM 4.5380 -72.4530 151° Southeast 495 570 35,000  Level FlightAware ADS-B
Thu 02:09:27 AM 4.4770 -72.4190 151° Southeast 495 570 35,000  Level FlightAware ADS-B
Thu 02:10:03 AM 4.4160 -72.3850 151° Southeast 495 570 35,000  Level FlightAware ADS-B
Thu 02:10:51 AM 4.3340 -72.3390 151° Southeast 495 570 35,000  Level FlightAware ADS-B
Thu 02:11:26 AM 4.2740 -72.3060 151° Southeast 495 570 35,000  Level FlightAware ADS-B
Thu 02:12:15 AM 4.1910 -72.2600 151° Southeast 495 570 35,000  Level FlightAware ADS-B
Thu 02:12:51 AM 4.1300 -72.2260 151° Southeast 495 570 35,000 Level FlightAware ADS-B
Thu 02:15:00 AM 3.9104 -72.0336 139° Southeast  Level Estimated
Thu 02:16:00 AM 3.8083 -71.9442 139° Southeast  Level Estimated
Thu 02:17:00 AM 3.7061 -71.8548 139° Southeast  Level Estimated
Thu 02:18:00 AM 3.6039 -71.7654 139° Southeast  Level Estimated
Thu 02:19:00 AM 3.5017 -71.6760 139° Southeast  Level Estimated
Thu 02:20:00 AM 3.3996 -71.5866 139° Southeast  Level Estimated
Thu 02:21:00 AM 3.2974 -71.4973 139° Southeast  Level Estimated
Thu 02:22:00 AM 3.1952 -71.4080 139° Southeast  Level Estimated
Thu 02:23:00 AM 3.0930 -71.3187 139° Southeast  Level Estimated
Thu 02:24:00 AM 2.9907 -71.2294 139° Southeast  Level Estimated
Thu 02:25:00 AM 2.8885 -71.1401 139° Southeast  Level Estimated
Thu 02:26:00 AM 2.7863 -71.0509 139° Southeast  Level Estimated
Thu 02:27:00 AM 2.6841 -70.9616 139° Southeast  Level Estimated
Thu 02:28:00 AM 2.5818 -70.8724 139° Southeast  Level Estimated
Thu 02:29:00 AM 2.4795 -70.7832 139° Southeast  Level Estimated
Thu 02:30:00 AM 2.3773 -70.6940 139° Southeast  Level Estimated
Thu 02:31:00 AM 2.2750 -70.6048 139° Southeast  Level Estimated
Thu 02:32:00 AM 2.1728 -70.5156 139° Southeast  Level Estimated
Thu 02:33:00 AM 2.0705 -70.4265 139° Southeast  Level Estimated
Thu 02:34:00 AM 1.9682 -70.3373 139° Southeast  Level Estimated
Thu 02:35:00 AM 1.8659 -70.2482 139° Southeast  Level Estimated
Thu 02:36:00 AM 1.7636 -70.1591 139° Southeast  Level Estimated
Thu 02:37:00 AM 1.6614 -70.0700 139° Southeast  Level Estimated
Thu 02:38:00 AM 1.5592 -69.9810 139° Southeast  Level Estimated
Thu 02:39:00 AM 1.4571 -69.8921 139° Southeast  Level Estimated
Thu 02:40:00 AM 1.3550 -69.8032 139° Southeast  Level Estimated
Thu 02:41:00 AM 1.2529 -69.7143 139° Southeast  Level Estimated
Thu 02:42:00 AM 1.1508 -69.6254 139° Southeast  Level Estimated
Thu 02:43:00 AM 1.0486 -69.5364 139° Southeast  Level Estimated
Thu 02:44:00 AM 0.9465 -69.4475 139° Southeast  Level Estimated
Thu 02:45:00 AM 0.8444 -69.3587 139° Southeast  Level Estimated
Thu 02:46:00 AM 0.7423 -69.2698 139° Southeast  Level Estimated
Thu 02:47:00 AM 0.6401 -69.1809 139° Southeast  Level Estimated
Thu 02:48:00 AM 0.5380 -69.0920 139° Southeast  Level Estimated
Thu 02:49:00 AM 0.4358 -69.0031 139° Southeast  Level Estimated
Thu 02:50:00 AM 0.3337 -68.9142 139° Southeast  Level Estimated
Thu 02:51:00 AM 0.2315 -68.8253 139° Southeast  Level Estimated
Thu 02:52:00 AM 0.1294 -68.7365 139° Southeast  Level Estimated
Thu 02:53:00 AM 0.0273 -68.6476 139° Southeast  Level Estimated
Thu 02:54:00 AM -0.0749 -68.5587 139° Southeast  Level Estimated
Thu 02:55:00 AM -0.1770 -68.4699 139° Southeast  Level Estimated
Thu 02:56:00 AM -0.2792 -68.3810 139° Southeast  Level Estimated
Thu 02:57:00 AM -0.3813 -68.2921 139° Southeast  Level Estimated
Thu 02:58:00 AM -0.4834 -68.2032 139° Southeast  Level Estimated
Thu 02:59:00 AM -0.5856 -68.1144 139° Southeast  Level Estimated
Thu 03:00:00 AM -0.6877 -68.0255 139° Southeast  Level Estimated
Thu 03:01:00 AM -0.7898 -67.9366 139° Southeast  Level Estimated
Thu 03:02:00 AM -0.8920 -67.8477 139° Southeast  Level Estimated
Thu 03:03:00 AM -0.9941 -67.7588 139° Southeast  Level Estimated
Thu 03:04:00 AM -1.0962 -67.6699 139° Southeast  Level Estimated
Thu 03:05:00 AM -1.1984 -67.5810 139° Southeast  Level Estimated
Thu 03:06:00 AM -1.3005 -67.4921 139° Southeast  Level Estimated
Thu 03:07:00 AM -1.4026 -67.4032 139° Southeast  Level Estimated
Thu 03:08:00 AM -1.5047 -67.3142 139° Southeast  Level Estimated
Thu 03:09:00 AM -1.6068 -67.2253 139° Southeast  Level Estimated
Thu 03:10:00 AM -1.7090 -67.1363 139° Southeast  Level Estimated
Thu 03:11:00 AM -1.8111 -67.0474 139° Southeast  Level Estimated
Thu 03:12:00 AM -1.9131 -66.9584 139° Southeast  Level Estimated
Thu 03:13:00 AM -2.0152 -66.8694 139° Southeast  Level Estimated
Thu 03:14:00 AM -2.1173 -66.7804 139° Southeast  Level Estimated
Thu 03:15:00 AM -2.2194 -66.6914 139° Southeast  Level Estimated
Thu 03:16:00 AM -2.3215 -66.6024 139° Southeast  Level Estimated
Thu 03:17:00 AM -2.4236 -66.5134 139° Southeast  Level Estimated
Thu 03:18:00 AM -2.5257 -66.4243 139° Southeast  Level Estimated
Thu 03:19:00 AM -2.6277 -66.3353 139° Southeast  Level Estimated
Thu 03:20:00 AM -2.7298 -66.2462 139° Southeast  Level Estimated
Thu 03:21:00 AM -2.8318 -66.1572 139° Southeast  Level Estimated
Thu 03:22:00 AM -2.9339 -66.0680 139° Southeast  Level Estimated
Thu 03:23:00 AM -3.0359 -65.9789 139° Southeast  Level Estimated
Thu 03:24:00 AM -3.1379 -65.8898 139° Southeast  Level Estimated
Thu 03:25:00 AM -3.2400 -65.8007 139° Southeast  Level Estimated
Thu 03:26:00 AM -3.3420 -65.7115 139° Southeast  Level Estimated
Thu 03:27:00 AM -3.4440 -65.6223 139° Southeast  Level Estimated
Thu 03:28:00 AM -3.5460 -65.5331 139° Southeast  Level Estimated
Thu 03:29:00 AM -3.6480 -65.4439 139° Southeast  Level Estimated
Thu 03:30:00 AM -3.7499 -65.3546 139° Southeast  Level Estimated
Thu 03:31:00 AM -3.8519 -65.2654 139° Southeast  Level Estimated
Thu 03:32:00 AM -3.9539 -65.1761 139° Southeast  Level Estimated
Thu 03:33:00 AM -4.0558 -65.0868 139° Southeast  Level Estimated
Thu 03:34:00 AM -4.1578 -64.9974 139° Southeast  Level Estimated
Thu 03:35:00 AM -4.2597 -64.9081 139° Southeast  Level Estimated
Thu 03:36:00 AM -4.3616 -64.8187 139° Southeast  Level Estimated
Thu 03:37:00 AM -4.4635 -64.7293 139° Southeast  Level Estimated
Thu 03:38:00 AM -4.5654 -64.6399 139° Southeast  Level Estimated
Thu 03:39:00 AM -4.6673 -64.5504 139° Southeast  Level Estimated
Thu 03:40:00 AM -4.7692 -64.4610 139° Southeast  Level Estimated
Thu 03:41:00 AM -4.8711 -64.3714 139° Southeast  Level Estimated
Thu 03:42:00 AM -4.9729 -64.2819 139° Southeast  Level Estimated
Thu 03:43:00 AM -5.0748 -64.1924 139° Southeast  Level Estimated
Thu 03:44:00 AM -5.1766 -64.1028 139° Southeast  Level Estimated
Thu 03:45:00 AM -5.2784 -64.0131 139° Southeast  Level Estimated
Thu 03:46:00 AM -5.3802 -63.9235 139° Southeast  Level Estimated
Thu 03:47:00 AM -5.4820 -63.8338 139° Southeast  Level Estimated
Thu 03:48:00 AM -5.5838 -63.7441 139° Southeast  Level Estimated
Thu 03:49:00 AM -5.6855 -63.6544 139° Southeast  Level Estimated
Thu 03:50:00 AM -5.7873 -63.5646 139° Southeast  Level Estimated
Thu 03:51:00 AM -5.8890 -63.4748 139° Southeast  Level Estimated
Thu 03:52:00 AM -5.9907 -63.3849 139° Southeast  Level Estimated
Thu 03:53:00 AM -6.0925 -63.2951 139° Southeast  Level Estimated
Thu 03:54:00 AM -6.1941 -63.2052 139° Southeast  Level Estimated
Thu 03:55:00 AM -6.2958 -63.1152 139° Southeast  Level Estimated
Thu 03:56:00 AM -6.3975 -63.0253 139° Southeast  Level Estimated
Thu 03:57:00 AM -6.4991 -62.9353 139° Southeast  Level Estimated
Thu 03:58:00 AM -6.6008 -62.8452 139° Southeast  Level Estimated
Thu 03:59:00 AM -6.7024 -62.7551 139° Southeast  Level Estimated
Thu 04:00:00 AM -6.8040 -62.6650 139° Southeast  Level Estimated
Thu 04:01:00 AM -6.9056 -62.5749 139° Southeast  Level Estimated
Thu 04:02:00 AM -7.0071 -62.4847 139° Southeast  Level Estimated
Thu 04:03:00 AM -7.1087 -62.3944 139° Southeast  Level Estimated
Thu 04:04:00 AM -7.2102 -62.3041 139° Southeast  Level Estimated
Thu 04:05:00 AM -7.3117 -62.2138 139° Southeast  Level Estimated
Thu 04:06:00 AM -7.4132 -62.1235 139° Southeast  Level Estimated
Thu 04:07:00 AM -7.5147 -62.0331 139° Southeast  Level Estimated
Thu 04:08:00 AM -7.6161 -61.9426 139° Southeast  Level Estimated
Thu 04:09:00 AM -7.7176 -61.8521 139° Southeast  Level Estimated
Thu 04:10:00 AM -7.8190 -61.7616 139° Southeast  Level Estimated
Thu 04:11:00 AM -7.9202 -61.6712 139° Southeast  Level Estimated
Thu 04:12:00 AM -8.0214 -61.5807 138° Southeast  Level Estimated
Thu 04:13:00 AM -8.1226 -61.4902 138° Southeast  Level Estimated
Thu 04:14:00 AM -8.2238 -61.3997 138° Southeast  Level Estimated
Thu 04:15:00 AM -8.3249 -61.3091 138° Southeast  Level Estimated
Thu 04:16:00 AM -8.4260 -61.2185 138° Southeast  Level Estimated
Thu 04:17:00 AM -8.5271 -61.1278 138° Southeast  Level Estimated
Thu 04:18:00 AM -8.6282 -61.0371 138° Southeast  Level Estimated
Thu 04:19:00 AM -8.7292 -60.9463 138° Southeast  Level Estimated
Thu 04:20:00 AM -8.8303 -60.8555 138° Southeast  Level Estimated
Thu 04:21:00 AM -8.9313 -60.7646 138° Southeast  Level Estimated
Thu 04:22:00 AM -9.0323 -60.6737 138° Southeast  Level Estimated
Thu 04:23:00 AM -9.1332 -60.5827 138° Southeast  Level Estimated
Thu 04:24:00 AM -9.2342 -60.4916 138° Southeast  Level Estimated
Thu 04:25:00 AM -9.3351 -60.4006 138° Southeast  Level Estimated
Thu 04:26:00 AM -9.4360 -60.3094 138° Southeast  Level Estimated
Thu 04:27:00 AM -9.5369 -60.2182 138° Southeast  Level Estimated
Thu 04:28:00 AM -9.6377 -60.1270 138° Southeast  Level Estimated
Thu 04:29:00 AM -9.7386 -60.0357 138° Southeast  Level Estimated
Thu 04:30:00 AM -9.8393 -59.9444 138° Southeast  Level Estimated
Thu 04:31:00 AM -9.9401 -59.8529 138° Southeast  Level Estimated
Thu 04:32:00 AM -10.0409 -59.7615 138° Southeast  Level Estimated
Thu 04:33:00 AM -10.1416 -59.6700 138° Southeast  Level Estimated
Thu 04:34:00 AM -10.2423 -59.5784 138° Southeast  Level Estimated
Thu 04:35:00 AM -10.3430 -59.4867 138° Southeast  Level Estimated
Thu 04:36:00 AM -10.4436 -59.3950 138° Southeast  Level Estimated
Thu 04:37:00 AM -10.5443 -59.3033 138° Southeast  Level Estimated
Thu 04:38:00 AM -10.6449 -59.2115 138° Southeast  Level Estimated
Thu 04:39:00 AM -10.7454 -59.1196 138° Southeast  Level Estimated
Thu 04:40:00 AM -10.8460 -59.0276 138° Southeast  Level Estimated
Thu 04:41:00 AM -10.9465 -58.9356 138° Southeast  Level Estimated
Thu 04:42:00 AM -11.0470 -58.8436 138° Southeast  Level Estimated
Thu 04:43:00 AM -11.1474 -58.7515 138° Southeast  Level Estimated
Thu 04:44:00 AM -11.2479 -58.6593 138° Southeast  Level Estimated
Thu 04:45:00 AM -11.3483 -58.5670 138° Southeast  Level Estimated
Thu 04:46:00 AM -11.4487 -58.4747 138° Southeast  Level Estimated
Thu 04:47:00 AM -11.5490 -58.3823 138° Southeast  Level Estimated
Thu 04:48:00 AM -11.6493 -58.2899 138° Southeast  Level Estimated
Thu 04:49:00 AM -11.7496 -58.1973 138° Southeast  Level Estimated
Thu 04:50:00 AM -11.8499 -58.1048 138° Southeast  Level Estimated
Thu 04:51:00 AM -11.9501 -58.0121 138° Southeast  Level Estimated
Thu 04:52:00 AM -12.0503 -57.9194 138° Southeast  Level Estimated
Thu 04:53:00 AM -12.1505 -57.8266 138° Southeast  Level Estimated
Thu 04:54:00 AM -12.2506 -57.7337 138° Southeast  Level Estimated
Thu 04:55:00 AM -12.3507 -57.6408 138° Southeast  Level Estimated
Thu 04:56:00 AM -12.4508 -57.5478 138° Southeast  Level Estimated
Thu 04:57:00 AM -12.5508 -57.4548 138° Southeast  Level Estimated
Thu 04:58:00 AM -12.6508 -57.3616 138° Southeast  Level Estimated
Thu 04:59:00 AM -12.7508 -57.2684 138° Southeast  Level Estimated
Thu 05:00:00 AM -12.8507 -57.1751 138° Southeast  Level Estimated
Thu 05:01:00 AM -12.9507 -57.0817 138° Southeast  Level Estimated
Thu 05:02:00 AM -13.0505 -56.9883 138° Southeast  Level Estimated
Thu 05:03:00 AM -13.1504 -56.8948 138° Southeast  Level Estimated
Thu 05:04:00 AM -13.2502 -56.8012 138° Southeast  Level Estimated
Thu 05:05:00 AM -13.3500 -56.7075 138° Southeast  Level Estimated
Thu 05:06:00 AM -13.4497 -56.6138 138° Southeast  Level Estimated
Thu 05:07:00 AM -13.5494 -56.5199 138° Southeast  Level Estimated
Thu 05:08:00 AM -13.6491 -56.4260 138° Southeast  Level Estimated
Thu 05:09:00 AM -13.7487 -56.3321 138° Southeast  Level Estimated
Thu 05:10:00 AM -13.8483 -56.2380 137° Southeast  Level Estimated
Thu 05:11:00 AM -13.9479 -56.1438 137° Southeast  Level Estimated
Thu 05:12:00 AM -14.0474 -56.0496 137° Southeast  Level Estimated
Thu 05:13:00 AM -14.1469 -55.9553 137° Southeast  Level Estimated
Thu 05:14:00 AM -14.2464 -55.8609 137° Southeast  Level Estimated
Thu 05:15:00 AM -14.3458 -55.7665 137° Southeast  Level Estimated
Thu 05:16:00 AM -14.4452 -55.6719 137° Southeast  Level Estimated
Thu 05:17:00 AM -14.5445 -55.5773 137° Southeast  Level Estimated
Thu 05:18:00 AM -14.6438 -55.4825 137° Southeast  Level Estimated
Thu 05:19:00 AM -14.7431 -55.3877 137° Southeast  Level Estimated
Thu 05:20:00 AM -14.8423 -55.2928 137° Southeast  Level Estimated
Thu 05:21:00 AM -14.9415 -55.1978 137° Southeast  Level Estimated
Thu 05:22:00 AM -15.0407 -55.1028 137° Southeast  Level Estimated
Thu 05:23:00 AM -15.1398 -55.0076 137° Southeast  Level Estimated
Thu 05:24:00 AM -15.2388 -54.9123 137° Southeast  Level Estimated
Thu 05:25:00 AM -15.3379 -54.8170 137° Southeast  Level Estimated
Thu 05:26:00 AM -15.4369 -54.7216 137° Southeast  Level Estimated
Thu 05:27:00 AM -15.5358 -54.6261 137° Southeast  Level Estimated
Thu 05:28:00 AM -15.6347 -54.5304 137° Southeast  Level Estimated
Thu 05:29:00 AM -15.7336 -54.4347 137° Southeast  Level Estimated
Thu 05:30:00 AM -15.8324 -54.3389 137° Southeast  Level Estimated
Thu 05:31:00 AM -15.9312 -54.2430 137° Southeast  Level Estimated
Thu 05:32:00 AM -16.0299 -54.1471 137° Southeast  Level Estimated
Thu 05:33:00 AM -16.1286 -54.0510 137° Southeast  Level Estimated
Thu 05:34:00 AM -16.2273 -53.9548 137° Southeast  Level Estimated
Thu 05:35:00 AM -16.3259 -53.8585 137° Southeast  Level Estimated
Thu 05:36:00 AM -16.4245 -53.7622 137° Southeast  Level Estimated
Thu 05:37:00 AM -16.5230 -53.6657 137° Southeast  Level Estimated
Thu 05:38:00 AM -16.6215 -53.5691 137° Southeast  Level Estimated
Thu 05:39:00 AM -16.7199 -53.4725 137° Southeast  Level Estimated
Thu 05:40:00 AM -16.8183 -53.3757 137° Southeast  Level Estimated
Thu 05:41:00 AM -16.9166 -53.2788 137° Southeast  Level Estimated
Thu 05:42:00 AM -17.0149 -53.1818 137° Southeast  Level Estimated
Thu 05:43:00 AM -17.1132 -53.0848 137° Southeast  Level Estimated
Thu 05:44:00 AM -17.2114 -52.9876 137° Southeast  Level Estimated
Thu 05:45:00 AM -17.3095 -52.8903 137° Southeast  Level Estimated
Thu 05:46:00 AM -17.4077 -52.7929 137° Southeast  Level Estimated
Thu 05:47:00 AM -17.5057 -52.6955 137° Southeast  Level Estimated
Thu 05:48:00 AM -17.6038 -52.5979 137° Southeast  Level Estimated
Thu 05:49:00 AM -17.7017 -52.5002 136° Southeast  Level Estimated
Thu 05:50:00 AM -17.7996 -52.4024 136° Southeast  Level Estimated
Thu 05:51:00 AM -17.8975 -52.3045 136° Southeast  Level Estimated
Thu 05:52:00 AM -17.9953 -52.2064 136° Southeast  Level Estimated
Thu 05:53:00 AM -18.0931 -52.1083 136° Southeast  Level Estimated
Thu 05:53:37 AM -19.1310 -50.5280 136° Southeast 524 603 37,000  Level FlightAware ADS-B
Thu 05:54:00 AM -18.1908 -52.0101 136° Southeast  Level Estimated
Thu 05:54:17 AM -19.1970 -50.4560 134° Southeast 524 603 37,000  Level FlightAware ADS-B
Thu 05:54:53 AM -19.2590 -50.3880 134° Southeast 524 603 37,000  Level FlightAware ADS-B
Thu 05:55:39 AM -19.3320 -50.3080 134° Southeast 524 603 37,000  Level FlightAware ADS-B
Thu 05:56:15 AM -19.3940 -50.2400 134° Southeast 524 603 37,000  Level FlightAware ADS-B
Thu 05:56:51 AM -19.4570 -50.1700 134° Southeast 524 603 37,000  Level FlightAware ADS-B
Thu 05:57:35 AM -19.5330 -50.0870 134° Southeast 524 603 37,000  Level FlightAware ADS-B
Thu 05:58:15 AM -19.5980 -50.0140 133° Southeast 524 603 37,000  Level FlightAware ADS-B
Thu 05:59:01 AM -19.6770 -49.9280 134° Southeast 522 601 37,000  Level FlightAware ADS-B
Thu 05:59:41 AM -19.7450 -49.8540 134° Southeast 521 600 37,000  Level FlightAware ADS-B
Thu 06:00:25 AM -19.8190 -49.7740 135° Southeast 521 600 37,000  Level FlightAware ADS-B
Thu 06:01:05 AM -19.8840 -49.7020 134° Southeast 522 601 37,000  Level FlightAware ADS-B
Thu 06:01:47 AM -19.9560 -49.6240 134° Southeast 522 601 37,000  Level FlightAware ADS-B
Thu 06:02:31 AM -20.0290 -49.5430 134° Southeast 521 600 37,000  Level FlightAware ADS-B
Thu 06:03:10 AM -20.0950 -49.4710 134° Southeast 521 600 37,000  Level FlightAware ADS-B
Thu 06:03:52 AM -20.1630 -49.3950 134° Southeast 521 600 37,000  Level FlightAware ADS-B
Thu 06:04:36 AM -20.2380 -49.3120 134° Southeast 522 601 37,000  Level FlightAware ADS-B
Thu 06:05:16 AM -20.3050 -49.2390 134° Southeast 523 602 37,000  Level FlightAware ADS-B
Thu 06:06:00 AM -20.3810 -49.1550 134° Southeast 524 603 37,000  Level FlightAware ADS-B
Thu 06:06:44 AM -20.4550 -49.0730 134° Southeast 526 605 37,000  Level FlightAware ADS-B
Thu 06:07:24 AM -20.5230 -48.9980 134° Southeast 526 605 37,000  Level FlightAware ADS-B
Thu 06:08:08 AM -20.5960 -48.9160 134° Southeast 527 606 37,000  Level FlightAware ADS-B
Thu 06:08:48 AM -20.6630 -48.8420 134° Southeast 527 606 37,000  Level FlightAware ADS-B
Thu 06:09:28 AM -20.7290 -48.7680 134° Southeast 527 606 37,000  Level FlightAware ADS-B
Thu 06:10:13 AM -20.8040 -48.6840 134° Southeast 528 608 37,000  Level FlightAware ADS-B
Thu 06:10:54 AM -20.8740 -48.6050 133° Southeast 528 608 37,000  Level FlightAware ADS-B
Thu 06:11:26 AM -20.9280 -48.5450 134° Southeast 526 605 37,000  Level FlightAware ADS-B
Thu 06:12:14 AM -21.0110 -48.4520 134° Southeast 526 605 37,000  Level FlightAware ADS-B
Thu 06:13:06 AM -21.0980 -48.3540 134° Southeast 525 604 37,000  Level FlightAware ADS-B
Thu 06:13:51 AM -21.1740 -48.2680 133° Southeast 526 605 37,000  Level FlightAware ADS-B
Thu 06:14:31 AM -21.2410 -48.1920 133° Southeast 527 606 37,000  Level FlightAware ADS-B
Thu 06:15:11 AM -21.3080 -48.1160 133° Southeast 527 606 37,000  Level FlightAware ADS-B
Thu 06:15:55 AM -21.3810 -48.0330 133° Southeast 527 606 37,000  Level FlightAware ADS-B
Thu 06:16:39 AM -21.4540 -47.9500 133° Southeast 527 606 37,000  Level FlightAware ADS-B
Thu 06:17:13 AM -21.5110 -47.8860 134° Southeast 527 606 37,000  Level FlightAware ADS-B
Thu 06:17:54 AM -21.5800 -47.8080 134° Southeast 528 608 37,000  Level FlightAware ADS-B
Thu 06:18:35 AM -21.6490 -47.7290 133° Southeast 529 609 37,000  Level FlightAware ADS-B
Thu 06:19:13 AM -21.7140 -47.6560 134° Southeast 527 606 37,000  Level FlightAware ADS-B
Thu 06:19:55 AM -21.7840 -47.5750 133° Southeast 520 598 37,000 -1,794 Level FlightAware ADS-B
Thu 06:22:00 AM -22.0247 -47.4155 148° Southeast  Level Estimated
Thu 06:23:00 AM -22.1402 -47.3387 148° Southeast  Level Estimated
Thu 06:23:54 AM -22.2060 -47.2530 148° Southeast 498 573 28,600  Level FlightAware ADS-B
Thu 06:24:00 AM -22.2557 -47.2618 148° Southeast  Level Estimated
Thu 06:24:34 AM -22.2960 -47.2160 159° South 479 551 26,800  Level FlightAware ADS-B
Thu 06:25:20 AM -22.4180 -47.1660 159° South 457 526 23,200 -3,495 Descending FlightAware ADS-B
Thu 06:26:05 AM -22.5030 -47.1290 158° South 421 484 21,500 -2,071 Descending FlightAware ADS-B
Thu 06:26:44 AM -22.5730 -47.0990 158° South 405 466 20,300 -1,792 Descending FlightAware ADS-B
Thu 06:27:22 AM -22.6380 -47.0720 159° South 398 458 19,200 -1,800 Descending FlightAware ADS-B
Thu 06:28:04 AM -22.7100 -47.0420 159° South 389 448 17,900 -1,780 Descending FlightAware ADS-B
Thu 06:28:53 AM -22.7910 -47.0080 159° South 380 437 16,500 -1,694 Descending FlightAware ADS-B
Thu 06:29:29 AM -22.8510 -46.9830 159° South 374 430 15,500 -1,816 Descending FlightAware ADS-B
Thu 06:30:09 AM -22.9150 -46.9560 159° South 372 428 14,200 -2,000 Descending FlightAware ADS-B
Thu 06:30:53 AM -22.9840 -46.9270 159° South 349 402 12,700 -1,974 Descending FlightAware ADS-B
Thu 06:31:25 AM -23.0310 -46.9070 159° South 324 373 11,700 -1,816 Descending FlightAware ADS-B
Thu 06:32:09 AM -23.0910 -46.8820 159° South 306 352 10,400 -1,500 Descending FlightAware ADS-B
Thu 06:32:37 AM -23.1260 -46.8670 158° South 298 343 9,900 -1,179 Descending FlightAware ADS-B
Thu 06:33:05 AM -23.1630 -46.8510 158° South 295 339 9,300 -1,245 Descending FlightAware ADS-B
Thu 06:33:30 AM -23.1940 -46.8380 159° South 293 337 8,800 -1,245 Descending FlightAware ADS-B
Thu 06:33:58 AM -23.2300 -46.8230 159° South 298 343 8,200 -1,179 Descending FlightAware ADS-B
Thu 06:34:26 AM -23.2670 -46.8070 158° South 298 343 7,700 -750 Descending FlightAware ADS-B
Thu 06:34:54 AM -23.3020 -46.7930 160° South 277 319 7,500 -421 Descending FlightAware ADS-B
Thu 06:35:23 AM -23.3340 -46.7790 158° South 259 298 7,300 -536 Descending FlightAware ADS-B
Thu 06:35:50 AM -23.3640 -46.7660 158° South 252 290 7,000 -720 Descending FlightAware ADS-B
Thu 06:36:13 AM -23.3870 -46.7490 146° Southeast 258 297 6,700 -1,059 Descending FlightAware ADS-B
Thu 06:36:41 AM -23.4130 -46.7250 140° Southeast 263 303 6,100 -1,241 Descending FlightAware ADS-B
Thu 06:37:11 AM -23.4400 -46.6990 139° Southeast 256 295 5,500 -1,111 Descending FlightAware ADS-B
Thu 06:37:35 AM -23.4560 -46.6730 124° Southeast 249 287 5,100 -808 Descending FlightAware ADS-B
Thu 06:38:03 AM -23.4700 -46.6420 116° Southeast 240 276 4,800 -632 Descending FlightAware ADS-B
Thu 06:38:51 AM -23.4680 -46.5930 87° East 197 227 4,300 -825 Descending FlightAware ADS-B
Thu 06:39:23 AM -23.4600 -46.5640 73° East 181 208 3,700 -1,000 Descending FlightAware ADS-B
Thu 06:39:51 AM -23.4530 -46.5410 72° East 156 180 3,300 -720 Descending FlightAware ADS-B
Thu 06:40:13 AM -23.4490 -46.5260 74° East 149 171 3,100 -692 Descending FlightAware ADS-B
Thu 06:40:43 AM -23.4440 -46.5040 76° East 141 162 2,700 -750 Descending FlightAware ADS-B
Thu 06:41:09 AM -23.4390 -46.4870 72° East 142 163 2,400 -692 Descending FlightAware ADS-B
Thu 06:41:28 AM -23.4350 -46.4740 71° East 115 132 -7,579 Descending FlightAware ADS-B
Thu 06:42:09 AM -23.4320 -46.4600 77° East 76 87  Level FlightAware ADS-B

Login

Don't have an account? Register now (free) for customized features, flight alerts, and more!